Moonlight Serenade — A8RD2 — position and weather

sailwx.info

Track history (hours):
 
Tides and Currents Weather Stations Pressure Air Temp Water Temp Dewpoint Dewpoint Depression Visibility Wind Speed Wind Dir Waves Ship Positions

Moonlight Serenade

Last reported at 2018-Jun-04 13:11 UTC. Time now 2018-Jun-22 05:25 UTC.
Position N 33°47' E 134°53'.
Warning: this ship's position is 17 days out of date.

Length 172 m; draft 7.7 m.

Type: Cargo ship. MMSI: 636014073.

Date/timePositionNaut miles runAvg speedWind from/ knotsBaromVisibWave heightAir tempDewpointWater temp
2018-Jun-04 13:11N 33°47' E 134°53'311.8
2018-Jun-04 12:56N 33°50' E 134°55'511.1
2018-Jun-04 12:30N 33°54' E 134°57'510.9
2018-Jun-04 12:00N 33°59' E 134°57'510.8
2018-Jun-04 11:30N 34°05' E 134°57'611.6
2018-Jun-04 11:00N 34°11' E 134°57'5 9.6
2018-Jun-04 10:30N 34°15' E 134°58'612.3
2018-Jun-04 10:00N 34°21' E 135°00'612.3
2018-Jun-04 09:30N 34°27' E 135°03'612.3
2018-Jun-04 09:00N 34°33' E 135°06'3 6.9
2018-Jun-04 08:30N 34°35' E 135°04'612.3
2018-Jun-04 08:00N 34°36' E 134°56'713.4
2018-Jun-04 07:30N 34°33' E 134°49'611.9
2018-Jun-04 07:00N 34°34' E 134°42'612.9
2018-Jun-04 06:30N 34°40' E 134°38'611.5
2018-Jun-04 05:59N 34°46' E 134°38'1 0.0
2018-Jun-03 10:07N 34°47' E 134°38'0 0.0
2018-Jun-03 09:49N 34°47' E 134°38'0 0.0
2018-Jun-03 09:13N 34°47' E 134°38'0 0.0
2018-Jun-03 08:55N 34°47' E 134°38'0 0.0
2018-Jun-02 02:25N 34°47' E 134°38'0 0.1
2018-Jun-01 22:58N 34°47' E 134°38'2 4.6
2018-Jun-01 22:30N 34°45' E 134°38'0 0.3
2018-Jun-01 21:49N 34°45' E 134°38'0 0.0
2018-Jun-01 21:28N 34°45' E 134°38'0 0.0
2018-Jun-01 20:58N 34°45' E 134°38'0 0.0
2018-Jun-01 20:28N 34°45' E 134°38'0 0.0
2018-Jun-01 19:58N 34°45' E 134°38'0 0.0
2018-Jun-01 19:28N 34°45' E 134°38'0 0.0
2018-Jun-01 18:58N 34°45' E 134°38'0 0.1
2018-Jun-01 18:28N 34°45' E 134°38'0 0.2
2018-Jun-01 17:58N 34°45' E 134°38'0 0.1
2018-Jun-01 17:28N 34°45' E 134°38'0 0.0
2018-Jun-01 16:58N 34°45' E 134°38'0 0.0
2018-Jun-01 16:28N 34°45' E 134°38'0 0.0
2018-Jun-01 15:58N 34°45' E 134°38'0 0.0
2018-Jun-01 15:28N 34°45' E 134°38'0 0.0
2018-Jun-01 14:58N 34°45' E 134°38'0 0.0
2018-Jun-01 14:28N 34°45' E 134°38'0 0.0
2018-Jun-01 13:58N 34°45' E 134°38'0 0.0
2018-Jun-01 13:28N 34°45' E 134°38'0 0.0
2018-Jun-01 12:58N 34°45' E 134°38'0 0.0
2018-Jun-01 12:28N 34°45' E 134°38'0 0.0
2018-Jun-01 11:49N 34°45' E 134°38'0 0.0
2018-Jun-01 11:13N 34°45' E 134°38'0 0.1
2018-Jun-01 10:58N 34°45' E 134°38'0 0.2
2018-Jun-01 10:19N 34°45' E 134°38'0 0.1
2018-Jun-01 09:55N 34°45' E 134°38'0 0.0
2018-Jun-01 07:40N 34°45' E 134°38'0 0.0
2018-Jun-01 07:28N 34°45' E 134°38'0 0.0
2018-Jun-01 06:58N 34°45' E 134°38'0 0.0
2018-Jun-01 06:28N 34°45' E 134°38'0 0.1
2018-Jun-01 05:59N 34°45' E 134°38'3 7.1
2018-Jun-01 05:30N 34°43' E 134°42'612.4
2018-Jun-01 05:00N 34°40' E 134°48'511.0
2018-Jun-01 04:30N 34°37' E 134°54'611.4
2018-Jun-01 04:00N 34°37' E 135°01'511.0
2018-Jun-01 03:30N 34°35' E 135°07'3 5.1
2018-Jun-01 03:00N 34°33' E 135°08'4 8.4
2018-Jun-01 02:30N 34°29' E 135°07'510.1
2018-Jun-01 02:00N 34°24' E 135°04'510.2
2018-Jun-01 01:30N 34°20' E 135°01'611.1
2018-Jun-01 01:00N 34°14' E 134°59'5 9.3
2018-Jun-01 00:30N 34°10' E 134°59'3 5.4
2018-Jun-01 00:00N 34°07' E 134°59'5 9.5
2018-May-31 23:30N 34°02' E 134°58'4 8.7
2018-May-31 23:00N 33°58' E 134°57'5 9.4
2018-May-31 22:30N 33°53' E 134°56'4 8.6
2018-May-31 22:00N 33°49' E 134°57'5 9.7
2018-May-31 21:30N 33°45' E 135°00'510.0
2018-May-31 21:00N 33°41' E 135°04'610.8
2018-May-31 20:27N 33°36' E 135°07'510.1
2018-May-31 19:55N 33°31' E 135°06'  
Track history (hours):
 
Tides and Currents Weather Stations Pressure Air Temp Water Temp Dewpoint Dewpoint Depression Visibility Wind Speed Wind Dir Waves Ship Positions

Moonlight Serenade

Last reported at 2018-Jun-04 13:11 UTC. Time now 2018-Jun-22 05:25 UTC.
Position N 33°47' E 134°53'.
Warning: this ship's position is 17 days out of date.

Length 172 m; draft 7.7 m.

Type: Cargo ship. MMSI: 636014073.

Date/timePositionNaut miles runAvg speedWind from/ knotsBaromVisibWave heightAir tempDewpointWater temp
2018-Jun-04 13:11N 33°47' E 134°53'311.8
2018-Jun-04 12:56N 33°50' E 134°55'511.1
2018-Jun-04 12:30N 33°54' E 134°57'510.9
2018-Jun-04 12:00N 33°59' E 134°57'510.8
2018-Jun-04 11:30N 34°05' E 134°57'611.6
2018-Jun-04 11:00N 34°11' E 134°57'5 9.6
2018-Jun-04 10:30N 34°15' E 134°58'612.3
2018-Jun-04 10:00N 34°21' E 135°00'612.3
2018-Jun-04 09:30N 34°27' E 135°03'612.3
2018-Jun-04 09:00N 34°33' E 135°06'3 6.9
2018-Jun-04 08:30N 34°35' E 135°04'612.3
2018-Jun-04 08:00N 34°36' E 134°56'713.4
2018-Jun-04 07:30N 34°33' E 134°49'611.9
2018-Jun-04 07:00N 34°34' E 134°42'612.9
2018-Jun-04 06:30N 34°40' E 134°38'611.5
2018-Jun-04 05:59N 34°46' E 134°38'1 0.0
2018-Jun-03 10:07N 34°47' E 134°38'0 0.0
2018-Jun-03 09:49N 34°47' E 134°38'0 0.0
2018-Jun-03 09:13N 34°47' E 134°38'0 0.0
2018-Jun-03 08:55N 34°47' E 134°38'0 0.0
2018-Jun-02 02:25N 34°47' E 134°38'0 0.1
2018-Jun-01 22:58N 34°47' E 134°38'2 4.6
2018-Jun-01 22:30N 34°45' E 134°38'0 0.3
2018-Jun-01 21:49N 34°45' E 134°38'0 0.0
2018-Jun-01 21:28N 34°45' E 134°38'0 0.0
2018-Jun-01 20:58N 34°45' E 134°38'0 0.0
2018-Jun-01 20:28N 34°45' E 134°38'0 0.0
2018-Jun-01 19:58N 34°45' E 134°38'0 0.0
2018-Jun-01 19:28N 34°45' E 134°38'0 0.0
2018-Jun-01 18:58N 34°45' E 134°38'0 0.1
2018-Jun-01 18:28N 34°45' E 134°38'0 0.2
2018-Jun-01 17:58N 34°45' E 134°38'0 0.1
2018-Jun-01 17:28N 34°45' E 134°38'0 0.0
2018-Jun-01 16:58N 34°45' E 134°38'0 0.0
2018-Jun-01 16:28N 34°45' E 134°38'0 0.0
2018-Jun-01 15:58N 34°45' E 134°38'0 0.0
2018-Jun-01 15:28N 34°45' E 134°38'0 0.0
2018-Jun-01 14:58N 34°45' E 134°38'0 0.0
2018-Jun-01 14:28N 34°45' E 134°38'0 0.0
2018-Jun-01 13:58N 34°45' E 134°38'0 0.0
2018-Jun-01 13:28N 34°45' E 134°38'0 0.0
2018-Jun-01 12:58N 34°45' E 134°38'0 0.0
2018-Jun-01 12:28N 34°45' E 134°38'0 0.0
2018-Jun-01 11:49N 34°45' E 134°38'0 0.0
2018-Jun-01 11:13N 34°45' E 134°38'0 0.1
2018-Jun-01 10:58N 34°45' E 134°38'0 0.2
2018-Jun-01 10:19N 34°45' E 134°38'0 0.1
2018-Jun-01 09:55N 34°45' E 134°38'0 0.0
2018-Jun-01 07:40N 34°45' E 134°38'0 0.0
2018-Jun-01 07:28N 34°45' E 134°38'0 0.0
2018-Jun-01 06:58N 34°45' E 134°38'0 0.0
2018-Jun-01 06:28N 34°45' E 134°38'0 0.1
2018-Jun-01 05:59N 34°45' E 134°38'3 7.1
2018-Jun-01 05:30N 34°43' E 134°42'612.4
2018-Jun-01 05:00N 34°40' E 134°48'511.0
2018-Jun-01 04:30N 34°37' E 134°54'611.4
2018-Jun-01 04:00N 34°37' E 135°01'511.0
2018-Jun-01 03:30N 34°35' E 135°07'3 5.1
2018-Jun-01 03:00N 34°33' E 135°08'4 8.4
2018-Jun-01 02:30N 34°29' E 135°07'510.1
2018-Jun-01 02:00N 34°24' E 135°04'510.2
2018-Jun-01 01:30N 34°20' E 135°01'611.1
2018-Jun-01 01:00N 34°14' E 134°59'5 9.3
2018-Jun-01 00:30N 34°10' E 134°59'3 5.4
2018-Jun-01 00:00N 34°07' E 134°59'5 9.5
2018-May-31 23:30N 34°02' E 134°58'4 8.7
2018-May-31 23:00N 33°58' E 134°57'5 9.4
2018-May-31 22:30N 33°53' E 134°56'4 8.6
2018-May-31 22:00N 33°49' E 134°57'5 9.7
2018-May-31 21:30N 33°45' E 135°00'510.0
2018-May-31 21:00N 33°41' E 135°04'610.8
2018-May-31 20:27N 33°36' E 135°07'510.1
2018-May-31 19:55N 33°31' E 135°06'  

Dump ship's entire track history